createdAt,value
2022-11-08T00:01:15.767Z,1.20
2022-11-08T00:03:42.213Z,0.85
2022-11-08T00:06:08.631Z,0.77
2022-11-08T00:08:35.088Z,0.55
2022-11-08T00:11:01.520Z,0.65
2022-11-08T00:13:27.988Z,0.73
2022-11-08T00:15:54.420Z,0.70
2022-11-08T00:18:20.852Z,0.73
2022-11-08T00:20:47.293Z,0.90
2022-11-08T00:23:13.733Z,0.75
2022-11-08T00:25:40.176Z,0.80
2022-11-08T00:28:06.608Z,0.80
2022-11-08T00:30:33.043Z,1.10
2022-11-08T00:32:59.495Z,0.57
2022-11-08T00:35:25.949Z,1.00
2022-11-08T00:37:52.399Z,0.90
2022-11-08T00:40:18.852Z,0.77
2022-11-08T00:42:45.288Z,0.68
2022-11-08T00:45:11.727Z,0.68
2022-11-08T00:47:38.156Z,0.77
2022-11-08T00:50:04.606Z,0.75
2022-11-08T00:52:31.036Z,0.60
2022-11-08T00:54:57.479Z,0.57
2022-11-08T00:57:35.921Z,0.70
2022-11-08T01:00:10.333Z,0.68
2022-11-08T01:02:36.847Z,0.70
2022-11-08T01:05:03.311Z,0.93
2022-11-08T01:07:29.741Z,0.95
2022-11-08T01:09:56.167Z,0.80
2022-11-08T01:12:22.585Z,1.00
2022-11-08T01:14:49.231Z,0.80
2022-11-08T01:17:15.660Z,0.60
2022-11-08T01:19:42.107Z,1.00
2022-11-08T01:22:08.532Z,0.73
2022-11-08T01:24:34.978Z,0.70
2022-11-08T01:27:01.399Z,0.77
2022-11-08T01:29:27.840Z,0.70
2022-11-08T01:31:54.260Z,0.65
2022-11-08T01:34:20.713Z,0.90
2022-11-08T01:36:47.155Z,0.60
2022-11-08T01:39:13.605Z,0.60
2022-11-08T01:41:40.048Z,0.52
2022-11-08T01:44:06.490Z,0.43
2022-11-08T01:46:32.933Z,0.73
2022-11-08T01:48:59.357Z,0.70
2022-11-08T01:51:25.803Z,0.50
2022-11-08T01:53:52.247Z,1.20
2022-11-08T01:56:18.873Z,0.90
2022-11-08T01:58:45.338Z,0.77
2022-11-08T02:01:11.836Z,0.70
2022-11-08T02:03:38.319Z,0.80
2022-11-08T02:06:04.788Z,0.93
2022-11-08T02:08:31.206Z,1.00
2022-11-08T02:10:57.662Z,0.55
2022-11-08T02:13:24.080Z,0.70
2022-11-08T02:15:50.510Z,0.80
2022-11-08T02:18:17.401Z,0.70
2022-11-08T02:20:44.072Z,0.88
2022-11-08T02:23:10.531Z,0.70
2022-11-08T02:25:36.964Z,0.65
2022-11-08T02:28:03.392Z,0.70
2022-11-08T02:30:29.830Z,0.80
2022-11-08T02:32:56.260Z,0.80
2022-11-08T02:35:22.689Z,0.90
2022-11-08T02:37:49.120Z,0.88
2022-11-08T02:40:15.545Z,0.70
2022-11-08T02:42:41.973Z,1.27
2022-11-08T02:45:08.401Z,1.10
2022-11-08T02:47:34.841Z,1.17
2022-11-08T02:50:01.260Z,0.95
2022-11-08T02:52:27.700Z,0.63
2022-11-08T02:54:54.127Z,0.70
2022-11-08T02:57:20.563Z,0.70
2022-11-08T02:59:46.998Z,0.80
2022-11-08T03:02:13.576Z,0.90
2022-11-08T03:04:40.084Z,0.57
2022-11-08T03:07:06.532Z,0.80
2022-11-08T03:09:32.955Z,1.00
2022-11-08T03:11:59.391Z,0.73
2022-11-08T03:14:25.833Z,0.93
2022-11-08T03:16:52.280Z,1.05
2022-11-08T03:19:18.708Z,1.05
2022-11-08T03:21:45.135Z,0.90
2022-11-08T03:24:11.551Z,0.77
2022-11-08T03:26:38.005Z,1.00
2022-11-08T03:29:04.439Z,1.15
2022-11-08T03:31:30.876Z,0.80
2022-11-08T03:33:57.304Z,0.90
2022-11-08T03:36:23.761Z,1.10
2022-11-08T03:38:50.188Z,1.17
2022-11-08T03:41:16.627Z,0.98
2022-11-08T03:43:43.058Z,0.90
2022-11-08T03:46:09.500Z,0.95
2022-11-08T03:48:35.964Z,1.17
2022-11-08T03:51:02.411Z,0.90
2022-11-08T03:53:28.852Z,0.60
2022-11-08T03:55:55.279Z,0.75
2022-11-08T03:58:21.820Z,0.75
2022-11-08T04:00:48.261Z,0.88
2022-11-08T04:03:14.696Z,0.98
2022-11-08T04:05:41.126Z,0.95
2022-11-08T04:08:07.585Z,0.85
2022-11-08T04:10:34.037Z,0.80
2022-11-08T04:13:00.492Z,0.70
2022-11-08T04:15:26.915Z,0.70
2022-11-08T04:17:53.346Z,0.90
2022-11-08T04:20:19.773Z,0.70
2022-11-08T04:22:46.205Z,1.08
2022-11-08T04:25:12.636Z,0.70
2022-11-08T04:27:39.069Z,0.70
2022-11-08T04:30:05.509Z,0.75
2022-11-08T04:32:31.965Z,0.80
2022-11-08T04:34:58.410Z,0.95
2022-11-08T04:37:24.853Z,1.10
2022-11-08T04:39:51.279Z,0.70
2022-11-08T04:42:17.727Z,0.88
2022-11-08T04:44:44.147Z,0.85
2022-11-08T04:47:10.600Z,0.70
2022-11-08T04:49:37.030Z,1.02
2022-11-08T04:52:04.982Z,1.05
2022-11-08T04:54:31.406Z,0.95
2022-11-08T04:56:57.847Z,1.10
2022-11-08T04:59:24.299Z,1.20
2022-11-08T05:01:50.879Z,1.02
2022-11-08T05:04:17.442Z,0.70
2022-11-08T05:06:43.903Z,0.90
2022-11-08T05:09:10.344Z,0.82
2022-11-08T05:11:36.789Z,0.82
2022-11-08T05:14:03.240Z,0.85
2022-11-08T05:16:29.685Z,0.90
2022-11-08T05:18:56.133Z,1.40
2022-11-08T05:21:22.574Z,1.10
2022-11-08T05:23:49.034Z,1.52
2022-11-08T05:26:15.467Z,0.95
2022-11-08T05:28:41.919Z,1.05
2022-11-08T05:31:08.352Z,1.08
2022-11-08T05:33:34.826Z,1.20
2022-11-08T05:36:05.609Z,1.15
2022-11-08T05:38:32.562Z,1.23
2022-11-08T05:40:59.003Z,1.45
2022-11-08T05:43:25.447Z,1.50
2022-11-08T05:45:51.879Z,1.27
2022-11-08T05:48:18.613Z,1.98
2022-11-08T05:50:45.262Z,1.50
2022-11-08T05:53:11.717Z,1.55
2022-11-08T05:55:38.147Z,1.73
2022-11-08T05:58:04.592Z,2.00
2022-11-08T06:00:31.029Z,1.73
2022-11-08T06:02:57.507Z,1.48
2022-11-08T06:05:23.972Z,1.55
2022-11-08T06:07:50.418Z,1.67
2022-11-08T06:10:16.852Z,2.08
2022-11-08T06:12:43.278Z,1.75
2022-11-08T06:15:09.738Z,1.80
2022-11-08T06:17:36.173Z,1.58
2022-11-08T06:20:02.633Z,1.33
2022-11-08T06:22:29.631Z,1.65
2022-11-08T06:24:56.231Z,1.40
2022-11-08T06:27:22.679Z,1.40
2022-11-08T06:29:49.108Z,1.40
2022-11-08T06:32:15.553Z,1.20
2022-11-08T06:34:41.981Z,1.52
2022-11-08T06:37:08.418Z,1.40
2022-11-08T06:39:35.007Z,1.35
2022-11-08T06:42:01.467Z,1.42
2022-11-08T06:44:27.898Z,1.13
2022-11-08T06:46:54.334Z,1.20
2022-11-08T06:49:20.752Z,1.48
2022-11-08T06:51:47.184Z,1.13
2022-11-08T06:54:17.674Z,1.10
2022-11-08T06:56:44.407Z,0.98
2022-11-08T06:59:10.841Z,0.98
2022-11-08T07:01:39.883Z,0.90
2022-11-08T07:04:08.502Z,1.10
2022-11-08T07:06:35.138Z,1.20
2022-11-08T07:09:01.586Z,0.77
2022-11-08T07:11:28.027Z,1.20
2022-11-08T07:13:54.451Z,1.10
2022-11-08T07:16:20.900Z,0.80
2022-11-08T07:18:47.390Z,1.10
2022-11-08T07:21:13.896Z,0.98
2022-11-08T07:23:40.336Z,1.05
2022-11-08T07:26:06.798Z,1.23
2022-11-08T07:28:33.582Z,1.17
2022-11-08T07:31:00.074Z,1.17
2022-11-08T07:33:26.545Z,1.00
2022-11-08T07:35:52.989Z,1.40
2022-11-08T07:38:19.441Z,1.30
2022-11-08T07:40:45.893Z,1.05
2022-11-08T07:43:13.215Z,1.58
2022-11-08T07:45:39.858Z,1.25
2022-11-08T07:48:11.175Z,1.08
2022-11-08T07:50:38.652Z,1.40
2022-11-08T07:53:05.113Z,1.00
2022-11-08T07:55:31.553Z,1.00
2022-11-08T07:57:57.999Z,1.30
2022-11-08T08:00:24.431Z,1.20
2022-11-08T08:02:51.040Z,1.17
2022-11-08T08:05:17.600Z,1.45
2022-11-08T08:07:44.046Z,1.30
2022-11-08T08:10:10.481Z,1.20
2022-11-08T08:12:36.933Z,1.60
2022-11-08T08:15:03.373Z,1.42
2022-11-08T08:17:29.841Z,1.23
2022-11-08T08:19:56.285Z,1.25
2022-11-08T08:22:22.732Z,1.20
2022-11-08T08:24:49.179Z,1.23
2022-11-08T08:27:15.619Z,1.05
2022-11-08T08:29:42.065Z,1.20
2022-11-08T08:32:08.487Z,1.10
2022-11-08T08:34:34.941Z,1.40
2022-11-08T08:37:01.372Z,1.45
2022-11-08T08:39:27.821Z,1.05
2022-11-08T08:41:54.245Z,1.10
2022-11-08T08:44:20.689Z,1.20
2022-11-08T08:46:47.121Z,1.15
2022-11-08T08:49:13.563Z,1.10
2022-11-08T08:51:39.996Z,1.30
2022-11-08T08:54:06.459Z,1.27
2022-11-08T08:56:32.887Z,1.23
2022-11-08T09:01:45.718Z,1.30
2022-11-08T09:04:12.174Z,1.42
2022-11-08T09:06:38.649Z,1.35
2022-11-08T09:09:05.145Z,0.95
2022-11-08T09:11:31.589Z,1.15
2022-11-08T09:13:58.047Z,1.10
2022-11-08T09:16:24.490Z,1.00
2022-11-08T09:18:50.986Z,1.00
2022-11-08T09:21:17.501Z,0.90
2022-11-08T09:23:43.960Z,1.17
2022-11-08T09:26:10.397Z,0.90
2022-11-08T09:28:36.831Z,1.00
2022-11-08T09:31:03.285Z,0.90
2022-11-08T09:33:29.735Z,1.20
2022-11-08T09:35:56.174Z,1.17
2022-11-08T09:38:22.630Z,1.05
2022-11-08T09:40:49.057Z,1.20
2022-11-08T09:43:15.758Z,1.25
2022-11-08T09:45:42.503Z,0.93
2022-11-08T09:48:08.933Z,0.80
2022-11-08T09:50:35.385Z,1.05
2022-11-08T09:53:01.802Z,1.20
2022-11-08T09:55:28.263Z,1.20
2022-11-08T09:57:54.713Z,1.13
2022-11-08T10:00:21.169Z,1.00
2022-11-08T10:02:47.640Z,1.05
2022-11-08T10:05:14.066Z,1.25
2022-11-08T10:07:40.563Z,1.08
2022-11-08T10:10:07.001Z,1.00
2022-11-08T10:12:33.462Z,1.17
2022-11-08T10:14:59.895Z,1.10
2022-11-08T10:17:26.869Z,0.98
2022-11-08T10:19:53.306Z,1.05
2022-11-08T10:22:19.745Z,0.82
2022-11-08T10:24:46.191Z,1.00
2022-11-08T10:27:12.616Z,0.95
2022-11-08T10:29:39.056Z,1.02
2022-11-08T10:32:05.500Z,1.20
2022-11-08T10:34:31.935Z,0.90
2022-11-08T10:36:58.382Z,0.90
2022-11-08T10:39:24.826Z,1.17
2022-11-08T10:41:51.243Z,0.70
2022-11-08T10:44:17.688Z,1.02
2022-11-08T10:46:44.132Z,1.00
2022-11-08T10:49:10.576Z,0.77
2022-11-08T10:51:37.007Z,0.75
2022-11-08T10:54:03.449Z,0.93
2022-11-08T10:56:31.207Z,0.98
2022-11-08T10:59:00.647Z,1.17
2022-11-08T11:01:27.183Z,0.80
2022-11-08T11:03:53.691Z,1.05
2022-11-08T11:06:20.134Z,0.75
2022-11-08T11:08:46.577Z,0.98
2022-11-08T11:11:13.028Z,1.00
2022-11-08T11:13:39.465Z,1.00
2022-11-08T11:16:05.901Z,1.10
2022-11-08T11:18:32.351Z,0.82
2022-11-08T11:20:58.801Z,0.90
2022-11-08T11:23:25.265Z,0.90
2022-11-08T11:25:51.710Z,1.20
2022-11-08T11:28:18.381Z,0.85
2022-11-08T11:30:45.083Z,0.80
2022-11-08T11:33:11.561Z,1.10
2022-11-08T11:35:38.008Z,0.80
2022-11-08T11:38:04.443Z,1.02
2022-11-08T11:40:30.889Z,0.60
2022-11-08T11:42:57.332Z,0.90
2022-11-08T11:45:23.769Z,1.13
2022-11-08T11:47:50.223Z,0.95
2022-11-08T11:50:16.664Z,0.80
2022-11-08T11:52:43.081Z,0.90
2022-11-08T11:55:09.537Z,0.75
2022-11-08T11:57:35.976Z,0.90
2022-11-08T12:00:02.424Z,0.82
2022-11-08T12:02:28.943Z,0.80
2022-11-08T12:04:55.457Z,1.05
2022-11-08T12:07:22.117Z,0.80
2022-11-08T12:09:48.606Z,0.90
2022-11-08T12:12:15.046Z,1.20
2022-11-08T12:14:41.496Z,1.20
2022-11-08T12:17:07.937Z,1.05
2022-11-08T12:19:34.363Z,1.30
2022-11-08T12:22:00.810Z,1.00
2022-11-08T12:24:27.234Z,1.00
2022-11-08T12:26:53.676Z,0.77
2022-11-08T12:29:20.117Z,1.00
2022-11-08T12:31:46.571Z,1.00
2022-11-08T12:34:13.040Z,1.00
2022-11-08T12:36:39.488Z,0.93
2022-11-08T12:39:05.907Z,1.20
2022-11-08T12:41:32.349Z,0.90
2022-11-08T12:43:58.794Z,1.00
2022-11-08T12:46:25.231Z,0.95
2022-11-08T12:48:51.659Z,0.70
2022-11-08T12:51:18.101Z,0.80
2022-11-08T12:53:44.554Z,1.15
2022-11-08T12:56:10.993Z,0.80
2022-11-08T12:58:37.446Z,0.90
2022-11-08T13:01:03.989Z,0.98
2022-11-08T13:03:30.496Z,0.75
2022-11-08T13:05:56.929Z,0.95
2022-11-08T13:08:23.378Z,1.00
2022-11-08T13:10:49.801Z,1.00
2022-11-08T13:13:16.238Z,1.05
2022-11-08T13:15:42.676Z,0.70
2022-11-08T13:18:09.130Z,0.70
2022-11-08T13:20:35.638Z,0.80
2022-11-08T13:23:02.087Z,0.90
2022-11-08T13:25:28.575Z,0.80
2022-11-08T13:27:55.035Z,0.68
2022-11-08T13:30:21.473Z,1.00
2022-11-08T13:32:53.679Z,1.00
2022-11-08T13:35:20.584Z,1.25
2022-11-08T13:37:47.028Z,1.17
2022-11-08T13:40:13.486Z,0.90
2022-11-08T13:42:39.925Z,1.00
2022-11-08T13:45:06.348Z,1.00
2022-11-08T13:47:32.797Z,0.45
2022-11-08T13:49:59.238Z,0.82
2022-11-08T13:52:25.713Z,0.70
2022-11-08T13:54:52.163Z,0.70
2022-11-08T13:57:18.601Z,0.82
2022-11-08T13:59:45.043Z,1.45
2022-11-08T14:02:11.489Z,0.73
2022-11-08T14:04:37.935Z,0.68
2022-11-08T14:07:04.468Z,0.80
2022-11-08T14:09:33.576Z,1.00
2022-11-08T14:12:00.311Z,0.65
2022-11-08T14:14:26.737Z,0.85
2022-11-08T14:16:53.189Z,0.70
2022-11-08T14:19:19.627Z,0.98
2022-11-08T14:21:46.063Z,0.70
2022-11-08T14:24:12.498Z,0.85
2022-11-08T14:26:38.928Z,0.93
2022-11-08T14:29:05.363Z,0.80
2022-11-08T14:31:31.887Z,0.75
2022-11-08T14:33:58.350Z,0.60
2022-11-08T14:36:24.781Z,0.60
2022-11-08T14:38:51.226Z,0.70
2022-11-08T14:41:17.663Z,1.10
2022-11-08T14:43:44.099Z,0.70
2022-11-08T14:46:10.528Z,0.65
2022-11-08T14:48:36.960Z,0.60
2022-11-08T14:51:03.403Z,0.68
2022-11-08T14:53:29.834Z,0.80
2022-11-08T14:55:56.297Z,0.60
2022-11-08T14:58:22.746Z,0.60
2022-11-08T15:00:49.298Z,0.77
2022-11-08T15:03:15.929Z,0.60
2022-11-08T15:05:42.643Z,1.13
2022-11-08T15:08:09.120Z,1.10
2022-11-08T15:10:35.559Z,0.93
2022-11-08T15:13:02.011Z,0.80
2022-11-08T15:15:28.450Z,0.40
2022-11-08T15:17:54.887Z,0.60
2022-11-08T15:20:21.316Z,0.55
2022-11-08T15:22:47.781Z,0.75
2022-11-08T15:25:14.221Z,0.68
2022-11-08T15:27:40.671Z,0.50
2022-11-08T15:30:07.105Z,0.77
2022-11-08T15:32:33.542Z,0.68
2022-11-08T15:34:59.971Z,0.70
2022-11-08T15:37:26.407Z,0.77
2022-11-08T15:39:52.828Z,0.70
2022-11-08T15:42:19.330Z,0.80
2022-11-08T15:44:45.755Z,0.52
2022-11-08T15:47:12.205Z,0.60
2022-11-08T15:49:38.630Z,0.82
2022-11-08T15:52:05.083Z,0.90
2022-11-08T15:54:31.520Z,1.42
2022-11-08T15:56:58.051Z,0.70
2022-11-08T15:59:24.504Z,0.70
2022-11-08T16:01:51.039Z,0.80
2022-11-08T16:04:17.533Z,0.95
2022-11-08T16:06:43.984Z,0.70
2022-11-08T16:09:10.556Z,1.00
2022-11-08T16:11:36.999Z,1.00
2022-11-08T16:14:03.457Z,1.00
2022-11-08T16:16:34.859Z,0.88
2022-11-08T16:19:01.551Z,0.93
2022-11-08T16:21:27.975Z,0.60
2022-11-08T16:23:54.412Z,0.70
2022-11-08T16:26:20.856Z,0.60
2022-11-08T16:28:47.299Z,0.82
2022-11-08T16:31:13.726Z,0.70
2022-11-08T16:33:40.183Z,1.02
2022-11-08T16:36:06.620Z,0.70
2022-11-08T16:38:33.075Z,0.80
2022-11-08T16:40:59.494Z,0.70
2022-11-08T16:43:25.931Z,0.60
2022-11-08T16:46:05.338Z,0.70
2022-11-08T16:48:32.292Z,0.85
2022-11-08T16:50:58.728Z,0.85
2022-11-08T16:53:25.177Z,0.57
2022-11-08T16:55:51.616Z,0.95
2022-11-08T16:58:18.277Z,0.75
2022-11-08T17:00:44.894Z,0.80
2022-11-08T17:03:11.330Z,0.60
2022-11-08T17:05:37.764Z,0.60
2022-11-08T17:08:04.194Z,0.50
2022-11-08T17:10:30.674Z,0.50
2022-11-08T17:12:57.109Z,0.52
2022-11-08T17:15:23.552Z,0.50
2022-11-08T17:17:49.975Z,0.77
2022-11-08T17:20:16.422Z,0.60
2022-11-08T17:22:42.857Z,0.52
2022-11-08T17:25:10.788Z,0.60
2022-11-08T17:27:37.220Z,0.70
2022-11-08T17:30:03.683Z,0.60
2022-11-08T17:32:30.112Z,0.80
2022-11-08T17:34:56.552Z,0.73
2022-11-08T17:37:22.987Z,0.80
2022-11-08T17:39:49.434Z,0.60
2022-11-08T17:42:15.863Z,0.63
2022-11-08T17:44:42.336Z,0.60
2022-11-08T17:47:08.768Z,0.60
2022-11-08T17:49:37.669Z,0.80
2022-11-08T17:52:07.736Z,0.70
2022-11-08T17:54:34.196Z,0.80
2022-11-08T17:57:00.660Z,0.80
2022-11-08T17:59:27.089Z,0.73
2022-11-08T18:01:53.623Z,0.70
2022-11-08T18:04:20.096Z,0.70
2022-11-08T18:06:46.607Z,0.90
2022-11-08T18:09:13.063Z,0.70
2022-11-08T18:11:39.512Z,0.68
2022-11-08T18:14:05.951Z,0.70
2022-11-08T18:16:32.389Z,0.40
2022-11-08T18:18:58.825Z,0.90
2022-11-08T18:21:25.266Z,1.08
2022-11-08T18:23:51.709Z,0.90
2022-11-08T18:26:18.152Z,0.90
2022-11-08T18:28:44.595Z,0.85
2022-11-08T18:31:11.046Z,1.02
2022-11-08T18:33:37.479Z,0.63
2022-11-08T18:36:03.916Z,0.63
2022-11-08T18:38:30.367Z,1.02
2022-11-08T18:40:56.822Z,1.00
2022-11-08T18:43:23.260Z,0.73
2022-11-08T18:45:49.704Z,0.47
2022-11-08T18:48:16.144Z,1.00
2022-11-08T18:50:42.597Z,0.65
2022-11-08T18:53:09.041Z,0.50
2022-11-08T18:55:35.675Z,0.60
2022-11-08T18:58:02.105Z,1.00
2022-11-08T19:00:28.521Z,0.50
2022-11-08T19:02:54.962Z,0.70
2022-11-08T19:05:21.402Z,0.60
2022-11-08T19:07:47.848Z,0.50
2022-11-08T19:10:14.283Z,0.60
2022-11-08T19:12:40.736Z,0.90
2022-11-08T19:15:07.177Z,0.70
2022-11-08T19:17:33.631Z,0.60
2022-11-08T19:20:00.085Z,0.80
2022-11-08T19:22:26.534Z,0.90
2022-11-08T19:24:52.970Z,0.90
2022-11-08T19:27:19.411Z,1.00
2022-11-08T19:29:45.845Z,1.00
2022-11-08T19:32:12.274Z,0.80
2022-11-08T19:34:38.720Z,0.80
2022-11-08T19:37:05.158Z,0.70
2022-11-08T19:39:31.607Z,0.70
2022-11-08T19:41:58.039Z,0.95
2022-11-08T19:44:24.476Z,0.52
2022-11-08T19:46:50.909Z,0.85
2022-11-08T19:49:17.352Z,0.60
2022-11-08T19:51:43.789Z,0.70
2022-11-08T19:54:10.226Z,1.10
2022-11-08T19:59:23.103Z,0.80
2022-11-08T20:01:49.598Z,1.20
2022-11-08T20:04:16.159Z,1.15
2022-11-08T20:06:42.616Z,1.10
2022-11-08T20:09:09.082Z,0.90
2022-11-08T20:11:35.523Z,0.82
2022-11-08T20:14:01.978Z,0.90
2022-11-08T20:16:28.413Z,0.70
2022-11-08T20:18:54.850Z,0.80
2022-11-08T20:21:21.284Z,1.23
2022-11-08T20:23:47.734Z,0.70
2022-11-08T20:26:14.167Z,0.63
2022-11-08T20:28:41.997Z,0.57
2022-11-08T20:31:08.797Z,1.02
2022-11-08T20:33:35.244Z,1.10
2022-11-08T20:36:01.681Z,0.82
2022-11-08T20:38:28.140Z,1.25
2022-11-08T20:40:54.567Z,0.70
2022-11-08T20:43:20.999Z,0.80
2022-11-08T20:45:47.467Z,0.60
2022-11-08T20:48:14.151Z,0.70
2022-11-08T20:50:40.740Z,0.70
2022-11-08T20:53:07.167Z,0.82
2022-11-08T20:55:33.615Z,0.90
2022-11-08T20:58:00.059Z,0.88
2022-11-08T21:00:52.130Z,0.90
2022-11-08T21:03:17.863Z,0.70
2022-11-08T21:05:45.443Z,0.70
2022-11-08T21:10:58.349Z,0.80
2022-11-08T21:13:24.819Z,0.70
2022-11-08T21:15:51.282Z,1.00
2022-11-08T21:18:17.978Z,0.90
2022-11-08T21:20:44.660Z,1.27
2022-11-08T21:23:11.101Z,0.80
2022-11-08T21:25:37.599Z,0.70
2022-11-08T21:28:04.144Z,1.00
2022-11-08T21:30:30.589Z,0.80
2022-11-08T21:32:57.015Z,1.02
2022-11-08T21:35:23.453Z,1.30
2022-11-08T21:37:49.886Z,1.08
2022-11-08T21:40:16.314Z,0.80
2022-11-08T21:42:46.075Z,1.08
2022-11-08T21:45:14.940Z,0.60
2022-11-08T21:47:41.365Z,0.82
2022-11-08T21:50:07.814Z,0.77
2022-11-08T21:52:34.248Z,0.70
2022-11-08T21:55:00.693Z,0.60
2022-11-08T21:57:27.119Z,0.77
2022-11-08T21:59:53.567Z,0.60
2022-11-08T22:02:20.000Z,0.80
2022-11-08T22:04:46.453Z,1.33
2022-11-08T22:07:12.934Z,0.70
2022-11-08T22:09:39.407Z,0.80
2022-11-08T22:12:05.879Z,0.93
2022-11-08T22:14:32.313Z,0.90
2022-11-08T22:16:58.763Z,0.73
2022-11-08T22:19:25.187Z,0.93
2022-11-08T22:21:51.625Z,1.20
2022-11-08T22:24:18.124Z,0.77
2022-11-08T22:26:44.658Z,0.90
2022-11-08T22:29:11.091Z,1.00
2022-11-08T22:31:37.546Z,0.82
2022-11-08T22:34:03.989Z,0.70
2022-11-08T22:36:30.440Z,0.70
2022-11-08T22:38:56.871Z,0.90
2022-11-08T22:41:23.305Z,0.80
2022-11-08T22:43:49.745Z,1.00
2022-11-08T22:46:16.192Z,1.10
2022-11-08T22:48:42.616Z,0.88
2022-11-08T22:51:09.064Z,0.80
2022-11-08T22:53:35.487Z,0.70
2022-11-08T22:56:05.614Z,0.60
2022-11-08T22:58:34.884Z,0.90
2022-11-08T23:01:01.324Z,0.75
2022-11-08T23:03:27.755Z,0.80
2022-11-08T23:05:54.209Z,0.82
2022-11-08T23:08:20.670Z,0.98
2022-11-08T23:10:47.123Z,0.90
2022-11-08T23:13:13.546Z,0.98
2022-11-08T23:15:40.009Z,0.75
2022-11-08T23:18:06.436Z,0.93
2022-11-08T23:20:32.874Z,0.85
2022-11-08T23:22:59.320Z,0.68
2022-11-08T23:25:25.759Z,0.80
2022-11-08T23:27:52.202Z,1.10
2022-11-08T23:30:18.632Z,0.52
2022-11-08T23:32:45.070Z,0.80
2022-11-08T23:35:11.505Z,0.70
2022-11-08T23:37:37.939Z,1.05
2022-11-08T23:40:04.359Z,0.40
2022-11-08T23:42:30.796Z,0.50
2022-11-08T23:44:57.234Z,0.55
2022-11-08T23:47:23.677Z,0.70
2022-11-08T23:49:50.115Z,0.80
2022-11-08T23:52:16.558Z,0.80
2022-11-08T23:54:42.987Z,0.70
2022-11-08T23:57:09.433Z,0.60
2022-11-08T23:59:35.859Z,0.70
